Time;durP1;ratioP1;P1;durP2;ratioP2;P2;SDS_P1;SDS_P2;PMS_P1;PMS_P2;Temp;Humidity;BMP_temperature;BMP_pressure;BME280_temperature;BME280_humidity;BME280_pressure;Samples;Min_cycle;Max_cycle;Signal;HPM_P1;HPM_P2
2022/09/29 00:02:00;;;;;;;1.05;1.05;;;17.30;82.10;;;;;;5054137;28;20187;-71
2022/09/29 00:04:26;;;;;;;0.93;0.93;;;17.30;81.40;;;;;;5049859;28;20312;-72
2022/09/29 00:06:52;;;;;;;2.22;1.20;;;17.30;82.80;;;;;;5051976;28;20206;-72
2022/09/29 00:09:18;;;;;;;3.00;1.08;;;17.30;82.10;;;;;;5051677;28;20183;-72
2022/09/29 00:11:44;;;;;;;0.80;0.80;;;17.30;82.40;;;;;;5050770;28;20210;-72
2022/09/29 00:14:10;;;;;;;1.02;0.82;;;17.20;83.10;;;;;;5049498;28;20187;-72
2022/09/29 00:16:35;;;;;;;2.88;0.90;;;17.20;83.10;;;;;;5047050;28;20285;-72
2022/09/29 00:19:01;;;;;;;2.72;1.20;;;17.10;82.60;;;;;;5046219;28;20772;-71
2022/09/29 00:21:27;;;;;;;0.70;0.70;;;17.10;81.60;;;;;;5049580;28;20184;-72
2022/09/29 00:23:52;;;;;;;0.85;0.82;;;17.10;81.10;;;;;;5048689;28;20951;-72
2022/09/29 00:26:21;;;;;;;3.72;1.27;;;17.10;81.40;;;;;;5047187;28;20218;-73
2022/09/29 00:28:56;;;;;;;2.30;1.20;;;17.10;80.80;;;;;;5052665;28;20203;-73
2022/09/29 00:31:24;;;;;;;3.13;1.15;;;17.20;82.70;;;;;;5047671;28;20646;-73
2022/09/29 00:33:51;;;;;;;1.23;0.77;;;17.20;82.40;;;;;;5045935;28;21810;-72
2022/09/29 00:36:19;;;;;;;1.20;0.95;;;17.20;81.70;;;;;;5046660;28;20180;-74
2022/09/29 00:38:46;;;;;;;0.90;0.82;;;17.20;81.80;;;;;;5047616;28;20672;-73
2022/09/29 00:41:18;;;;;;;3.15;1.13;;;17.10;81.30;;;;;;5045237;28;20183;-73
2022/09/29 00:44:01;;;;;;;1.63;1.10;;;17.10;81.00;;;;;;5049905;28;20278;-73
2022/09/29 00:46:37;;;;;;;1.13;1.10;;;17.10;80.60;;;;;;5046871;28;20243;-73
2022/09/29 00:49:11;;;;;;;1.20;1.20;;;17.10;82.00;;;;;;5052115;28;20236;-73
2022/09/29 00:51:39;;;;;;;0.90;0.90;;;17.10;82.90;;;;;;5049898;28;20294;-73
2022/09/29 00:54:06;;;;;;;1.42;1.27;;;17.10;82.10;;;;;;5054743;28;20674;-73
2022/09/29 00:56:35;;;;;;;1.92;0.90;;;17.10;82.60;;;;;;5050752;28;20271;-73
2022/09/29 00:59:03;;;;;;;1.08;1.08;;;17.00;82.40;;;;;;5051673;28;20198;-73
2022/09/29 01:01:30;;;;;;;1.48;1.08;;;16.90;82.00;;;;;;5053743;28;20190;-73
2022/09/29 01:04:02;;;;;;;1.95;1.33;;;16.90;82.50;;;;;;5054182;28;20651;-73
2022/09/29 01:06:49;;;;;;;2.42;1.10;;;16.90;82.20;;;;;;5054949;28;20183;-73
2022/09/29 01:09:22;;;;;;;0.82;0.82;;;16.90;83.70;;;;;;5050474;28;20271;-73
2022/09/29 01:11:51;;;;;;;1.70;1.00;;;16.90;82.90;;;;;;5048326;28;20233;-73
2022/09/29 01:14:18;;;;;;;2.30;1.38;;;16.80;82.60;;;;;;5054004;28;20190;-73
2022/09/29 01:16:44;;;;;;;1.30;1.20;;;16.80;84.20;;;;;;5054137;28;20183;-73
2022/09/29 01:19:27;;;;;;;0.85;0.85;;;16.80;84.60;;;;;;5054906;28;20179;-73
2022/09/29 01:22:07;;;;;;;0.85;0.85;;;16.70;83.90;;;;;;5053698;28;20182;-73
2022/09/29 01:24:44;;;;;;;1.27;1.02;;;16.60;84.50;;;;;;5055795;28;20193;-73
2022/09/29 01:27:31;;;;;;;1.20;1.17;;;16.50;84.10;;;;;;5055508;28;20192;-73
2022/09/29 01:30:17;;;;;;;1.10;1.10;;;16.50;84.10;;;;;;5056805;28;20228;-73
2022/09/29 01:32:54;;;;;;;2.05;1.25;;;16.40;84.40;;;;;;5055393;28;20195;-73
2022/09/29 01:35:30;;;;;;;1.35;1.15;;;16.40;84.20;;;;;;5054427;28;20191;-73
2022/09/29 01:38:30;;;;;;;0.95;0.95;;;16.30;84.10;;;;;;5057413;28;21812;-73
2022/09/29 01:41:22;;;;;;;1.10;0.90;;;16.30;83.10;;;;;;5049585;28;20296;-74
2022/09/29 01:43:58;;;;;;;1.25;1.25;;;16.20;83.70;;;;;;5054760;28;20194;-73
2022/09/29 01:46:29;;;;;;;1.13;1.10;;;16.20;84.40;;;;;;5058342;28;21116;-73
2022/09/29 01:48:56;;;;;;;0.77;0.77;;;16.30;85.90;;;;;;5050883;28;20183;-73
2022/09/29 01:51:35;;;;;;;2.78;1.33;;;16.20;85.60;;;;;;5056891;28;20207;-73
2022/09/29 01:54:08;;;;;;;2.13;1.88;;;16.20;84.70;;;;;;5052234;28;20194;-73
2022/09/29 01:56:47;;;;;;;2.88;1.17;;;16.20;86.20;;;;;;5055036;28;20194;-73
2022/09/29 01:59:29;;;;;;;1.13;1.13;;;16.10;84.70;;;;;;5051615;28;20675;-73
2022/09/29 02:02:01;;;;;;;1.95;1.10;;;16.00;84.90;;;;;;5055171;28;20176;-73
2022/09/29 02:04:46;;;;;;;1.23;1.23;;;16.00;84.40;;;;;;5049247;28;20199;-74
2022/09/29 02:07:25;;;;;;;2.22;1.20;;;16.00;84.70;;;;;;5047518;28;21722;-73
2022/09/29 02:09:58;;;;;;;1.15;1.08;;;16.00;84.30;;;;;;5051958;28;20178;-73
2022/09/29 02:12:26;;;;;;;3.47;1.00;;;15.90;84.90;;;;;;5040779;28;20742;-73
2022/09/29 02:14:54;;;;;;;4.25;1.17;;;15.90;86.40;;;;;;5048869;28;20179;-73
2022/09/29 02:17:32;;;;;;;0.75;0.73;;;15.90;86.40;;;;;;5048491;28;20218;-73
2022/09/29 02:19:58;;;;;;;1.23;1.23;;;15.80;85.50;;;;;;5049850;28;20877;-73
2022/09/29 02:22:24;;;;;;;2.55;1.08;;;15.70;84.60;;;;;;5047891;28;20192;-73
2022/09/29 02:24:54;;;;;;;1.40;1.30;;;15.70;87.60;;;;;;5050897;28;20396;-73
2022/09/29 02:27:21;;;;;;;1.00;1.00;;;15.70;85.50;;;;;;5047472;28;20291;-74
2022/09/29 02:29:47;;;;;;;2.05;1.13;;;15.70;84.70;;;;;;5052091;28;20205;-73
2022/09/29 02:32:13;;;;;;;0.88;0.88;;;15.70;85.10;;;;;;5053523;28;20215;-73
2022/09/29 02:34:44;;;;;;;1.13;1.13;;;15.60;84.80;;;;;;5053928;28;20186;-73
2022/09/29 02:37:37;;;;;;;0.98;0.98;;;15.60;85.30;;;;;;5051739;28;20194;-73
2022/09/29 02:40:43;;;;;;;0.80;0.80;;;15.60;84.50;;;;;;5050330;28;20293;-73
2022/09/29 02:43:22;;;;;;;1.02;0.93;;;15.60;83.90;;;;;;5045884;28;20229;-73
2022/09/29 02:45:57;;;;;;;0.73;0.73;;;15.70;84.10;;;;;;5052883;28;20195;-73
2022/09/29 02:48:41;;;;;;;3.25;1.10;;;15.60;85.20;;;;;;5050873;28;20221;-73
2022/09/29 02:51:22;;;;;;;4.32;1.00;;;15.70;86.10;;;;;;5051822;28;20219;-73
2022/09/29 02:54:07;;;;;;;3.70;1.13;;;15.70;85.70;;;;;;5049341;28;20333;-73
2022/09/29 02:56:53;;;;;;;2.97;1.10;;;15.60;84.90;;;;;;5052656;28;20183;-73
2022/09/29 02:59:23;;;;;;;1.20;1.20;;;15.70;87.20;;;;;;5049473;28;20194;-73
2022/09/29 03:01:58;;;;;;;3.30;1.17;;;15.70;88.10;;;;;;5045965;28;20168;-73
2022/09/29 03:04:26;;;;;;;0.80;0.80;;;15.50;87.90;;;;;;5047954;28;20195;-73
2022/09/29 03:06:52;;;;;;;4.15;1.00;;;15.50;88.40;;;;;;5050664;28;20180;-73
2022/09/29 03:09:18;;;;;;;1.75;1.30;;;15.50;88.10;;;;;;5050634;28;20179;-73
2022/09/29 03:11:43;;;;;;;2.60;1.05;;;15.50;88.60;;;;;;5043266;28;20215;-73
2022/09/29 03:14:09;;;;;;;1.08;0.98;;;15.40;88.60;;;;;;5051069;28;20183;-73
2022/09/29 03:16:35;;;;;;;2.60;1.00;;;15.30;88.70;;;;;;5047992;28;20704;-73
2022/09/29 03:19:06;;;;;;;0.98;0.98;;;15.30;89.20;;;;;;5051541;28;20783;-73
2022/09/29 03:21:32;;;;;;;3.38;1.13;;;15.20;88.80;;;;;;5052322;28;20182;-73
2022/09/29 03:23:58;;;;;;;1.20;1.10;;;15.20;89.10;;;;;;5050820;28;20191;-73
2022/09/29 03:26:24;;;;;;;1.55;1.10;;;15.30;89.40;;;;;;5047048;28;20186;-72
2022/09/29 03:28:50;;;;;;;1.67;1.33;;;15.30;88.40;;;;;;5050844;28;20274;-73
2022/09/29 03:31:17;;;;;;;1.58;1.33;;;15.30;88.30;;;;;;5041529;28;20293;-72
2022/09/29 03:33:42;;;;;;;1.73;1.05;;;15.30;87.80;;;;;;5049994;28;20791;-72
2022/09/29 03:36:10;;;;;;;1.35;1.20;;;15.40;87.60;;;;;;5048203;28;20278;-72
2022/09/29 03:38:36;;;;;;;1.00;1.00;;;15.50;88.60;;;;;;5047321;28;20176;-72
2022/09/29 03:41:02;;;;;;;0.90;0.90;;;15.50;87.80;;;;;;5050004;28;20190;-72
2022/09/29 03:43:28;;;;;;;0.82;0.82;;;15.50;87.20;;;;;;5049575;28;20673;-72
2022/09/29 03:45:55;;;;;;;1.10;1.00;;;15.50;87.50;;;;;;5055689;28;20202;-72
2022/09/29 03:48:22;;;;;;;4.78;1.23;;;15.50;87.90;;;;;;5047115;28;20172;-71
2022/09/29 03:50:49;;;;;;;1.23;1.15;;;15.50;87.70;;;;;;5046826;28;20203;-74
2022/09/29 03:53:15;;;;;;;3.33;1.40;;;15.50;87.20;;;;;;5051527;28;20264;-72
2022/09/29 03:55:45;;;;;;;4.80;1.27;;;15.50;88.10;;;;;;5051059;28;20195;-72
2022/09/29 03:58:11;;;;;;;3.25;1.00;;;15.60;87.80;;;;;;5048532;28;20182;-73
2022/09/29 04:00:37;;;;;;;3.40;1.58;;;15.50;87.40;;;;;;5046267;28;20242;-73
2022/09/29 04:03:03;;;;;;;2.15;1.20;;;15.50;87.10;;;;;;5045294;28;20677;-73
2022/09/29 04:05:29;;;;;;;0.90;0.90;;;15.50;87.20;;;;;;5044807;28;20188;-73
2022/09/29 04:07:55;;;;;;;1.33;1.15;;;15.50;87.10;;;;;;5048798;28;20252;-73
2022/09/29 04:10:21;;;;;;;2.97;1.00;;;15.50;87.10;;;;;;5054765;28;20764;-73
2022/09/29 04:12:47;;;;;;;5.07;1.15;;;15.50;87.70;;;;;;5043783;28;20191;-73
2022/09/29 04:15:13;;;;;;;1.20;1.00;;;15.50;88.20;;;;;;5052004;28;20193;-73
2022/09/29 04:17:38;;;;;;;1.00;0.88;;;15.50;87.70;;;;;;5048349;28;20203;-74
2022/09/29 04:20:04;;;;;;;2.80;1.35;;;15.50;87.70;;;;;;5047941;28;20207;-74
2022/09/29 04:22:30;;;;;;;3.65;1.17;;;15.40;87.40;;;;;;5046323;28;20192;-73
2022/09/29 04:24:56;;;;;;;4.78;1.40;;;15.40;88.20;;;;;;5049399;28;20256;-75
2022/09/29 04:27:21;;;;;;;1.73;1.63;;;15.40;88.70;;;;;;5044437;28;20171;-75
2022/09/29 04:29:47;;;;;;;1.35;1.35;;;15.30;88.10;;;;;;5048288;28;20206;-74
2022/09/29 04:32:13;;;;;;;2.55;1.17;;;15.30;87.60;;;;;;5051025;28;20240;-73
2022/09/29 04:34:39;;;;;;;1.23;1.23;;;15.20;87.60;;;;;;5050698;28;20233;-75
2022/09/29 04:37:10;;;;;;;3.08;1.40;;;15.10;87.20;;;;;;5048720;28;21005;-75
2022/09/29 04:39:36;;;;;;;1.42;1.42;;;15.20;88.90;;;;;;5045489;28;20184;-74
2022/09/29 04:42:01;;;;;;;1.58;1.48;;;15.10;89.40;;;;;;5055193;28;20186;-78
2022/09/29 04:44:27;;;;;;;1.10;1.02;;;15.00;89.80;;;;;;5042752;28;20195;-75
2022/09/29 04:46:53;;;;;;;2.30;1.35;;;15.00;89.10;;;;;;5057483;28;20190;-75
2022/09/29 04:49:19;;;;;;;3.58;1.65;;;15.00;89.10;;;;;;5050969;28;20557;-75
2022/09/29 04:51:45;;;;;;;1.95;1.58;;;15.00;90.10;;;;;;5049845;28;20211;-75
2022/09/29 04:54:11;;;;;;;1.63;1.20;;;15.00;89.50;;;;;;5042742;28;20183;-75
2022/09/29 04:56:36;;;;;;;1.15;1.05;;;15.00;89.80;;;;;;5047428;28;20185;-77
2022/09/29 04:59:02;;;;;;;2.38;1.00;;;14.90;89.30;;;;;;5050246;28;20676;-74
2022/09/29 05:01:28;;;;;;;1.65;1.50;;;14.90;89.10;;;;;;5045593;28;20225;-74
2022/09/29 05:03:55;;;;;;;1.33;1.30;;;14.90;89.00;;;;;;5047334;28;20187;-73
2022/09/29 05:06:20;;;;;;;4.82;1.45;;;14.90;89.00;;;;;;5047868;28;20187;-79
2022/09/29 05:08:46;;;;;;;1.60;1.48;;;15.00;89.80;;;;;;5040359;28;20201;-77
2022/09/29 05:11:12;;;;;;;2.55;1.58;;;15.00;90.50;;;;;;5048267;28;21098;-77
2022/09/29 05:13:37;;;;;;;1.55;1.45;;;15.00;90.80;;;;;;5043006;28;20187;-77
2022/09/29 05:16:03;;;;;;;4.05;1.75;;;15.00;90.10;;;;;;5048803;28;20274;-78
2022/09/29 05:18:31;;;;;;;1.60;1.60;;;15.00;89.90;;;;;;5044531;28;20179;-76
2022/09/29 05:21:02;;;;;;;1.20;1.20;;;15.10;90.10;;;;;;5051827;28;20279;-77
2022/09/29 05:23:28;;;;;;;1.55;1.55;;;15.10;89.90;;;;;;5050283;28;20312;-77
2022/09/29 05:25:53;;;;;;;1.73;1.63;;;15.10;89.40;;;;;;5045389;28;20214;-77
2022/09/29 05:28:19;;;;;;;3.00;1.55;;;15.10;90.10;;;;;;5046949;28;20203;-77
2022/09/29 05:30:45;;;;;;;1.92;1.60;;;15.20;90.60;;;;;;5042760;28;20212;-77
2022/09/29 05:33:10;;;;;;;2.95;1.48;;;15.20;90.10;;;;;;5046776;28;20183;-77
2022/09/29 05:35:36;;;;;;;2.90;1.42;;;15.30;89.50;;;;;;5051320;28;20204;-77
2022/09/29 05:38:02;;;;;;;1.27;1.27;;;15.30;89.60;;;;;;5053911;28;20179;-77
2022/09/29 05:40:28;;;;;;;5.20;1.42;;;15.40;89.80;;;;;;5046796;28;20180;-77
2022/09/29 05:42:54;;;;;;;7.15;1.63;;;15.40;89.80;;;;;;5051316;28;20265;-78
2022/09/29 05:45:20;;;;;;;3.95;1.73;;;15.50;89.40;;;;;;5052503;28;20198;-77
2022/09/29 05:47:45;;;;;;;1.95;1.77;;;15.60;89.70;;;;;;5049562;28;20621;-77
2022/09/29 05:50:12;;;;;;;1.15;1.15;;;15.60;89.20;;;;;;5048493;28;20207;-78
2022/09/29 05:52:39;;;;;;;1.85;1.73;;;15.70;88.80;;;;;;5050379;28;20699;-77
2022/09/29 05:55:07;;;;;;;1.20;1.20;;;15.80;88.70;;;;;;5050779;28;20260;-77
2022/09/29 05:57:33;;;;;;;2.90;1.27;;;15.90;88.90;;;;;;5050819;28;20184;-77
2022/09/29 05:59:59;;;;;;;2.58;1.20;;;16.00;88.10;;;;;;5052462;28;20574;-77
2022/09/29 06:02:25;;;;;;;1.20;1.20;;;16.00;88.00;;;;;;5052306;28;20262;-77
2022/09/29 06:04:50;;;;;;;1.70;1.60;;;16.10;88.10;;;;;;5050852;28;20646;-77
2022/09/29 06:07:16;;;;;;;1.40;1.15;;;16.20;87.70;;;;;;5050245;28;20182;-77
2022/09/29 06:09:42;;;;;;;2.03;1.50;;;16.20;87.60;;;;;;5051294;28;20270;-77
2022/09/29 06:12:07;;;;;;;4.10;1.10;;;16.30;87.60;;;;;;5050522;28;20309;-77
2022/09/29 06:14:33;;;;;;;6.18;1.65;;;16.40;87.60;;;;;;5045489;28;20183;-77
2022/09/29 06:16:59;;;;;;;1.40;1.40;;;16.50;87.20;;;;;;5048952;28;20179;-77
2022/09/29 06:19:24;;;;;;;1.38;1.25;;;16.60;87.00;;;;;;5052761;28;20287;-77
2022/09/29 06:21:50;;;;;;;1.27;1.17;;;16.70;86.90;;;;;;5049627;28;20191;-77
2022/09/29 06:24:16;;;;;;;1.40;1.30;;;16.80;86.80;;;;;;5045881;28;20957;-77
2022/09/29 06:26:41;;;;;;;1.13;1.00;;;16.80;86.60;;;;;;5048304;28;20703;-77
2022/09/29 06:29:07;;;;;;;1.35;1.17;;;16.90;86.60;;;;;;5050517;28;20192;-77
2022/09/29 06:31:33;;;;;;;4.57;1.77;;;17.00;86.30;;;;;;5055916;28;20215;-77
2022/09/29 06:34:01;;;;;;;1.20;1.20;;;17.10;85.70;;;;;;5052656;28;20184;-78
2022/09/29 06:39:27;;;;;;;3.25;1.48;;;17.20;85.50;;;;;;5058424;28;20191;-77
2022/09/29 06:41:56;;;;;;;1.50;1.40;;;17.30;85.90;;;;;;5055492;28;20252;-76
2022/09/29 06:44:27;;;;;;;2.15;1.20;;;17.50;85.90;;;;;;5063933;28;20719;-79
2022/09/29 06:46:54;;;;;;;1.65;1.35;;;17.60;85.60;;;;;;5064114;28;20215;-76
2022/09/29 06:49:20;;;;;;;1.58;1.48;;;17.70;85.70;;;;;;5060277;28;20191;-77
2022/09/29 06:51:46;;;;;;;1.75;1.65;;;17.90;85.50;;;;;;5056144;28;20208;-76
2022/09/29 06:54:14;;;;;;;1.45;1.42;;;18.10;85.30;;;;;;5057002;28;20557;-77
2022/09/29 06:56:40;;;;;;;1.60;1.60;;;18.20;84.60;;;;;;5063360;28;20179;-77
2022/09/29 06:59:06;;;;;;;1.50;1.50;;;18.30;85.00;;;;;;5058504;28;20199;-78
2022/09/29 07:01:32;;;;;;;1.42;1.30;;;18.50;84.50;;;;;;5046558;28;20290;-78
2022/09/29 07:04:01;;;;;;;4.22;2.00;;;18.70;84.40;;;;;;5051752;28;20210;-78
2022/09/29 07:06:28;;;;;;;4.72;1.40;;;18.80;83.40;;;;;;5043369;28;20180;-77
2022/09/29 07:08:58;;;;;;;1.30;1.30;;;18.90;82.80;;;;;;5049892;28;20179;-78
2022/09/29 07:11:23;;;;;;;2.78;1.80;;;19.00;83.50;;;;;;5045235;28;20225;-77
2022/09/29 07:13:50;;;;;;;3.05;1.70;;;19.20;83.10;;;;;;5045881;28;20267;-78
2022/09/29 07:16:16;;;;;;;5.50;1.40;;;19.30;81.60;;;;;;5050436;28;20219;-78
2022/09/29 07:18:43;;;;;;;2.65;1.33;;;19.30;81.80;;;;;;5052493;28;20566;-79
2022/09/29 07:21:15;;;;;;;1.73;1.50;;;19.40;82.40;;;;;;5045694;28;20238;-78
2022/09/29 07:23:41;;;;;;;3.70;2.00;;;19.50;81.40;;;;;;5055175;28;20171;-78
2022/09/29 07:26:07;;;;;;;4.45;1.90;;;19.60;81.70;;;;;;5047145;28;20230;-78
2022/09/29 07:28:33;;;;;;;2.30;2.10;;;19.70;80.50;;;;;;5050031;28;20676;-78
2022/09/29 07:31:19;;;;;;;1.55;1.55;;;19.80;81.50;;;;;;5052238;28;20601;-78
2022/09/29 07:33:46;;;;;;;4.40;1.83;;;19.90;81.40;;;;;;5046144;28;21000;-78
2022/09/29 07:36:14;;;;;;;3.05;2.38;;;20.10;80.50;;;;;;5047678;28;20179;-78
2022/09/29 07:38:40;;;;;;;3.85;2.20;;;20.30;79.80;;;;;;5053379;28;20222;-78
2022/09/29 07:41:09;;;;;;;3.75;2.25;;;20.40;80.00;;;;;;5048519;28;20210;-79
2022/09/29 07:43:35;;;;;;;2.28;2.17;;;20.40;78.90;;;;;;5051418;28;20193;-78
2022/09/29 07:46:01;;;;;;;6.60;2.17;;;20.50;79.10;;;;;;5056057;28;20195;-79
2022/09/29 07:48:28;;;;;;;11.15;2.20;;;20.70;78.70;;;;;;5051728;28;20201;-79
2022/09/29 07:51:16;;;;;;;3.15;1.90;;;20.80;77.40;;;;;;5047389;28;20219;-79
2022/09/29 07:53:42;;;;;;;7.53;2.33;;;21.00;77.70;;;;;;5044408;28;20553;-79
2022/09/29 07:56:11;;;;;;;2.25;1.83;;;21.30;77.30;;;;;;5050308;28;20187;-79
2022/09/29 07:58:38;;;;;;;2.92;2.35;;;21.60;77.50;;;;;;5064585;28;20182;-79
2022/09/29 08:01:09;;;;;;;4.82;1.60;;;22.00;76.10;;;;;;5056821;28;20186;-79
2022/09/29 08:03:38;;;;;;;1.52;1.52;;;22.40;75.00;;;;;;5053003;28;20199;-79
2022/09/29 08:06:06;;;;;;;3.15;2.00;;;22.80;75.50;;;;;;5057039;28;20222;-79
2022/09/29 08:08:34;;;;;;;1.65;1.65;;;23.30;75.40;;;;;;5050067;28;20184;-79
2022/09/29 08:11:21;;;;;;;1.20;1.05;;;23.80;74.60;;;;;;5046029;28;20285;-78
2022/09/29 08:13:49;;;;;;;1.40;1.30;;;24.20;73.00;;;;;;5050202;28;20207;-78
2022/09/29 08:16:15;;;;;;;2.50;1.60;;;24.60;71.50;;;;;;5053419;28;20188;-79
2022/09/29 08:18:42;;;;;;;1.67;1.23;;;25.00;71.70;;;;;;5053227;28;20179;-79
2022/09/29 08:21:10;;;;;;;1.42;1.42;;;25.30;70.90;;;;;;5051789;28;20198;-77
2022/09/29 08:23:38;;;;;;;1.23;1.20;;;25.80;70.90;;;;;;5051647;28;20673;-78
2022/09/29 08:26:07;;;;;;;2.33;1.60;;;26.40;69.00;;;;;;5045051;28;20180;-77
2022/09/29 08:28:34;;;;;;;2.70;1.77;;;26.90;67.20;;;;;;5049218;28;20661;-78
2022/09/29 08:31:08;;;;;;;1.65;1.50;;;27.20;65.80;;;;;;5046703;28;20218;-78
2022/09/29 08:33:35;;;;;;;2.78;1.25;;;27.20;65.30;;;;;;5047942;28;20237;-78
2022/09/29 08:36:04;;;;;;;1.65;1.27;;;27.10;64.30;;;;;;5045258;28;20214;-77
2022/09/29 08:38:31;;;;;;;1.42;1.30;;;27.00;65.30;;;;;;5046628;28;20578;-77
2022/09/29 08:41:03;;;;;;;2.25;1.40;;;26.80;64.40;;;;;;5052369;28;20802;-77
2022/09/29 08:43:37;;;;;;;0.98;0.98;;;26.60;64.80;;;;;;5049003;28;20217;-77
2022/09/29 08:46:43;;;;;;;2.13;1.00;;;26.40;64.70;;;;;;5048969;28;20214;-77
2022/09/29 08:49:31;;;;;;;1.20;1.10;;;26.20;64.60;;;;;;5010330;28;20196;-78
2022/09/29 08:52:05;;;;;;;3.63;1.27;;;26.00;64.80;;;;;;5002374;28;20232;-77
2022/09/29 08:54:40;;;;;;;2.72;1.25;;;25.70;65.30;;;;;;5007680;28;20203;-78
2022/09/29 08:57:10;;;;;;;2.35;1.00;;;25.50;67.10;;;;;;5005507;28;20180;-78
2022/09/29 08:59:36;;;;;;;2.20;0.93;;;25.50;65.70;;;;;;5012980;28;21057;-78
2022/09/29 09:02:28;;;;;;;2.22;1.20;;;25.10;66.30;;;;;;5009506;28;20200;-78
2022/09/29 09:05:16;;;;;;;2.72;1.13;;;24.90;66.80;;;;;;4992147;28;20187;-78
2022/09/29 09:08:14;;;;;;;2.35;1.15;;;24.60;67.20;;;;;;5007726;28;20187;-78
2022/09/29 09:10:53;;;;;;;1.20;1.20;;;24.70;68.20;;;;;;5003576;28;20702;-78
2022/09/29 09:13:44;;;;;;;1.10;1.00;;;24.40;67.30;;;;;;5004179;28;20219;-78
2022/09/29 09:16:40;;;;;;;1.00;1.00;;;24.40;67.20;;;;;;5006596;28;21122;-78
2022/09/29 09:19:17;;;;;;;1.15;1.10;;;24.10;67.30;;;;;;5010330;28;20215;-78
2022/09/29 09:21:51;;;;;;;2.22;1.15;;;24.00;68.30;;;;;;5008601;28;20188;-78
2022/09/29 09:24:26;;;;;;;1.77;1.42;;;24.00;68.40;;;;;;5006479;28;20188;-78
2022/09/29 09:26:52;;;;;;;2.17;1.13;;;23.90;68.90;;;;;;5053164;28;20214;-78
2022/09/29 09:29:49;;;;;;;2.70;1.08;;;24.00;69.10;;;;;;5051644;28;20175;-79
2022/09/29 09:32:24;;;;;;;2.58;1.40;;;23.90;68.80;;;;;;5050452;28;20219;-78
2022/09/29 09:34:52;;;;;;;2.65;1.20;;;23.80;68.50;;;;;;5053327;28;20927;-78
2022/09/29 09:37:52;;;;;;;1.70;1.20;;;23.90;68.90;;;;;;5051427;28;20254;-78
2022/09/29 09:40:22;;;;;;;1.23;1.15;;;23.90;68.70;;;;;;5014285;28;20188;-79
2022/09/29 09:43:11;;;;;;;1.55;1.33;;;23.90;68.50;;;;;;5036679;28;20420;-79
2022/09/29 09:45:47;;;;;;;2.15;1.13;;;23.80;68.80;;;;;;5013996;28;20282;-78
2022/09/29 09:48:19;;;;;;;1.90;1.20;;;23.90;69.20;;;;;;5017587;28;20187;-79
2022/09/29 09:50:48;;;;;;;1.42;1.00;;;23.80;69.00;;;;;;5015843;28;22303;-79
2022/09/29 09:53:36;;;;;;;0.77;0.77;;;23.90;69.40;;;;;;5020208;28;20189;-79
2022/09/29 09:56:22;;;;;;;0.98;0.98;;;23.90;68.80;;;;;;5018460;28;20279;-78
2022/09/29 09:58:57;;;;;;;1.40;0.90;;;24.00;68.80;;;;;;5015837;28;20195;-79
2022/09/29 10:01:23;;;;;;;2.85;0.93;;;24.10;68.30;;;;;;5014578;28;20199;-78
2022/09/29 10:03:49;;;;;;;0.75;0.68;;;24.20;68.40;;;;;;5017016;28;20361;-78
2022/09/29 10:09:36;;;;;;;0.80;0.80;;;25.40;68.40;;;;;;5014799;28;20277;-76
2022/09/29 10:12:02;;;;;;;0.85;0.85;;;26.60;67.00;;;;;;5018294;28;20216;-75
2022/09/29 10:14:28;;;;;;;0.75;0.75;;;27.40;65.30;;;;;;5016461;28;20189;-75
2022/09/29 10:17:00;;;;;;;1.13;1.08;;;28.00;63.70;;;;;;5036998;28;20192;-75
2022/09/29 10:19:52;;;;;;;2.92;0.90;;;28.30;61.30;;;;;;5052707;28;20179;-75
2022/09/29 10:22:18;;;;;;;1.30;1.30;;;28.50;61.30;;;;;;5042624;28;20270;-74
2022/09/29 10:24:44;;;;;;;1.00;1.00;;;28.50;60.90;;;;;;5050098;28;20747;-75
2022/09/29 10:27:16;;;;;;;0.68;0.65;;;28.50;61.00;;;;;;5049440;28;20314;-74
2022/09/29 10:29:48;;;;;;;0.73;0.73;;;28.30;60.40;;;;;;5048076;28;20237;-75
2022/09/29 10:32:20;;;;;;;3.63;0.88;;;28.10;59.30;;;;;;5048300;28;20299;-75
2022/09/29 10:34:50;;;;;;;1.55;1.05;;;27.70;60.50;;;;;;5054460;28;20964;-75
2022/09/29 10:37:34;;;;;;;3.13;0.85;;;27.40;61.40;;;;;;5051884;28;20965;-73
2022/09/29 10:40:12;;;;;;;0.95;0.95;;;27.10;61.70;;;;;;5047775;28;20271;-73
2022/09/29 10:42:40;;;;;;;1.10;1.10;;;26.80;62.20;;;;;;5052592;28;20210;-73
2022/09/29 10:45:20;;;;;;;2.83;1.70;;;26.60;61.90;;;;;;5050051;28;20672;-75
2022/09/29 10:48:13;;;;;;;1.38;1.23;;;26.40;60.80;;;;;;5050595;28;20183;-73
2022/09/29 10:50:55;;;;;;;1.50;1.35;;;26.00;60.80;;;;;;5049982;28;20187;-76
2022/09/29 10:53:24;;;;;;;1.92;1.70;;;25.80;62.20;;;;;;5050839;28;20179;-73
2022/09/29 10:55:53;;;;;;;1.50;1.50;;;25.70;63.00;;;;;;5043786;28;20184;-74
2022/09/29 10:58:35;;;;;;;0.80;0.80;;;25.70;63.40;;;;;;5049653;28;20184;-73
2022/09/29 11:01:15;;;;;;;1.08;1.08;;;26.00;62.50;;;;;;5048852;28;20271;-73
2022/09/29 11:04:00;;;;;;;1.95;1.20;;;26.50;64.10;;;;;;5050406;28;20177;-74
2022/09/29 11:06:31;;;;;;;1.20;1.20;;;27.20;62.00;;;;;;5047610;28;20287;-73
2022/09/29 11:09:02;;;;;;;1.65;0.63;;;27.70;60.50;;;;;;5048017;28;20186;-74
2022/09/29 11:11:38;;;;;;;1.40;1.10;;;28.30;62.60;;;;;;5049205;28;20209;-74
2022/09/29 11:14:04;;;;;;;0.73;0.73;;;29.10;62.80;;;;;;5049683;28;20692;-74
2022/09/29 11:16:33;;;;;;;0.80;0.80;;;30.10;61.10;;;;;;5051054;28;20188;-74
2022/09/29 11:19:20;;;;;;;0.93;0.70;;;30.90;54.20;;;;;;5041657;28;20860;-74
2022/09/29 11:22:05;;;;;;;0.63;0.63;;;31.20;53.50;;;;;;5049390;28;20206;-74
2022/09/29 11:24:49;;;;;;;0.60;0.60;;;31.00;51.70;;;;;;5049344;28;20185;-75
2022/09/29 11:27:27;;;;;;;0.60;0.60;;;30.70;53.30;;;;;;5045211;28;20569;-73
2022/09/29 11:30:12;;;;;;;2.22;0.70;;;30.70;54.40;;;;;;5053036;28;20695;-74
2022/09/29 11:32:44;;;;;;;0.70;0.70;;;30.50;53.60;;;;;;5049419;28;20228;-74
2022/09/29 11:35:19;;;;;;;0.68;0.68;;;30.60;52.50;;;;;;5050897;28;20288;-74
2022/09/29 11:38:12;;;;;;;0.75;0.60;;;30.90;51.60;;;;;;5051134;28;20195;-74
2022/09/29 11:40:59;;;;;;;2.25;0.75;;;31.00;49.90;;;;;;5056029;28;20183;-74
2022/09/29 11:43:46;;;;;;;0.60;0.60;;;30.90;53.00;;;;;;5052708;28;20187;-74
2022/09/29 11:46:36;;;;;;;0.52;0.50;;;31.00;50.80;;;;;;5049871;28;20676;-74
2022/09/29 11:49:33;;;;;;;1.85;0.63;;;31.30;51.70;;;;;;5050576;28;20252;-74
2022/09/29 11:52:20;;;;;;;2.58;0.50;;;31.60;50.00;;;;;;5043315;28;20255;-74
2022/09/29 11:55:25;;;;;;;0.50;0.50;;;31.70;48.80;;;;;;5046961;28;20237;-74
2022/09/29 11:58:14;;;;;;;0.50;0.50;;;31.50;50.00;;;;;;5039324;28;20695;-74
2022/09/29 12:00:59;;;;;;;0.50;0.50;;;31.30;49.80;;;;;;5048837;28;20288;-74
2022/09/29 12:03:38;;;;;;;0.68;0.68;;;30.90;50.30;;;;;;5045035;28;20187;-74
2022/09/29 12:06:25;;;;;;;1.38;0.60;;;30.30;51.00;;;;;;5041241;28;20299;-75
2022/09/29 12:09:24;;;;;;;0.40;0.40;;;29.70;51.70;;;;;;5049381;28;20187;-72
2022/09/29 12:12:12;;;;;;;0.60;0.55;;;29.80;53.30;;;;;;5044771;28;20214;-72
2022/09/29 12:14:52;;;;;;;1.65;0.60;;;29.90;51.70;;;;;;5046890;28;21785;-73
2022/09/29 12:17:20;;;;;;;0.60;0.60;;;29.40;52.90;;;;;;5053370;28;20183;-73
2022/09/29 12:19:53;;;;;;;0.70;0.70;;;29.10;52.80;;;;;;5047518;28;20577;-73
2022/09/29 12:22:19;;;;;;;0.60;0.60;;;28.40;53.50;;;;;;5048373;28;20974;-74
2022/09/29 12:24:53;;;;;;;0.85;0.43;;;28.20;55.30;;;;;;5045598;28;20180;-74
2022/09/29 12:27:23;;;;;;;0.50;0.50;;;28.40;53.60;;;;;;5046259;28;20948;-74
2022/09/29 12:30:18;;;;;;;0.60;0.60;;;28.70;53.70;;;;;;5041870;28;20190;-73
2022/09/29 12:32:58;;;;;;;0.40;0.40;;;29.40;52.10;;;;;;5012464;28;20418;-74
2022/09/29 12:35:45;;;;;;;0.40;0.40;;;29.80;53.20;;;;;;5014730;28;20315;-74
2022/09/29 12:38:14;;;;;;;0.80;0.40;;;30.30;51.70;;;;;;5022952;28;20203;-74
2022/09/29 12:40:58;;;;;;;0.50;0.50;;;30.80;50.70;;;;;;5024308;28;20183;-74
2022/09/29 12:43:47;;;;;;;0.63;0.35;;;31.00;49.80;;;;;;5035804;28;20196;-74
2022/09/29 12:46:29;;;;;;;0.50;0.40;;;30.80;49.50;;;;;;5027014;28;20270;-74
2022/09/29 12:49:06;;;;;;;0.65;0.40;;;30.30;50.50;;;;;;5024207;28;20192;-74
2022/09/29 12:51:40;;;;;;;0.47;0.47;;;30.00;51.60;;;;;;5011383;28;20294;-73
2022/09/29 12:54:27;;;;;;;0.90;0.70;;;29.80;50.70;;;;;;5026388;28;20176;-73
2022/09/29 12:57:07;;;;;;;0.45;0.45;;;29.80;51.90;;;;;;5029370;28;20270;-74
2022/09/29 12:59:54;;;;;;;0.40;0.40;;;30.00;51.10;;;;;;5024739;28;20191;-74
2022/09/29 13:02:26;;;;;;;0.43;0.43;;;30.30;50.70;;;;;;5018707;28;20192;-74
2022/09/29 13:05:11;;;;;;;0.68;0.60;;;30.30;52.50;;;;;;5003452;28;20644;-73
2022/09/29 13:08:01;;;;;;;0.63;0.50;;;30.10;50.30;;;;;;5024334;28;20184;-74
2022/09/29 13:10:43;;;;;;;1.48;0.40;;;29.70;51.20;;;;;;5049100;28;20193;-73
2022/09/29 13:13:20;;;;;;;0.30;0.30;;;29.50;51.40;;;;;;5049238;28;20199;-73
2022/09/29 13:16:12;;;;;;;0.50;0.50;;;29.40;51.50;;;;;;5045347;28;20186;-73
2022/09/29 13:19:16;;;;;;;1.38;0.40;;;29.20;51.70;;;;;;5043860;28;20274;-73
2022/09/29 13:21:47;;;;;;;0.75;0.40;;;28.70;52.70;;;;;;5010881;28;20200;-72
2022/09/29 13:24:38;;;;;;;0.95;0.60;;;28.80;52.80;;;;;;4991862;28;20189;-74